CheckWX is a tool to help pilots better visualize weather data.  It is not intended as a substitute for an official pre-flight weather briefing.

12:28:39 UTC

KPEZ METAR
Pleasanton Municipal Airport
Pleasanton, Texas, USA
Current

34 mins ago

KPEZ 261155Z AUTO 31006KT 2 1/2SM BR OVC002 15/15 A2999 RMK AO2 T01500145 10151 20148
Observed
Jan-26 @ 11:55 UTC
Wind
  • 310° at 6 KTS
Visibility
2 1/2 SM
Flight Rules
LIFR
Conditions
Mist
Cloud Levels
  • Overcast at 200' AGL
Temperature
15°C / 59°F
Dewpoint
15°C / 59°F
Humidity
100%
Altimeter
29.99" Hg
Pressure
1015.62 hPa
Previous

54 mins ago

KPEZ 261135Z AUTO 32008KT 3/4SM BR OVC002 15/15 A2999 RMK AO2 T01500146
Observed
Jan-26 @ 11:35 UTC
Wind
  • 320° at 8 KTS
Visibility
3/4 SM
Flight Rules
LIFR
Conditions
Mist
Cloud Levels
  • Overcast at 200' AGL
Temperature
15°C / 59°F
Dewpoint
15°C / 59°F
Humidity
100%
Altimeter
29.99" Hg
Pressure
1015.62 hPa
Previous

1 hour ago

KPEZ 261115Z AUTO 32004KT 1/4SM FG OVC002 15/15 A2999 RMK AO2 T01510147
Observed
Jan-26 @ 11:15 UTC
Wind
  • 320° at 4 KTS
Visibility
1/4 SM
Flight Rules
LIFR
Conditions
Fog
Cloud Levels
  • Overcast at 200' AGL
Temperature
15°C / 59°F
Dewpoint
15°C / 59°F
Humidity
100%
Altimeter
29.99" Hg
Pressure
1015.62 hPa